Eddyville, Iowa
Current Conditions -  °F | °C
As of 7:35 PM on Sunday 23 Nov 2014 (Local Time) from KOOA Reporting Station
Overcast Overcast  
Wind Chill: 34°   Ceiling: 600
Heat Index: 44°   Visibility: 10mi
Dew Point: 43°   Wind: 30mph
Humidity: 98%   Direction: 320°NW
Pressure: 29.29"   Gusts: 35mph
Location:  41.16°N, 92.63°W
Report Text: KOOA 240135Z AUTO 32026G30KT 10SM OVC006 07/06 A2929 RMK AO2 T00660063
Loading
Personal Weather Stations






























Interactive Weather Map New forecast layout! Learn more

10-Day Weather Forecast

Advertisements
Track Severe Weather on mobile